createdAt,value
2019-03-12T00:00:26.444Z,53.20
2019-03-12T00:00:57.624Z,53.20
2019-03-12T00:01:28.826Z,53.20
2019-03-12T00:02:00.005Z,53.20
2019-03-12T00:02:31.622Z,53.20
2019-03-12T00:03:03.105Z,53.50
2019-03-12T00:03:34.407Z,53.10
2019-03-12T00:04:05.614Z,53.10
2019-03-12T00:04:36.797Z,53.10
2019-03-12T00:05:07.967Z,53.10
2019-03-12T00:05:39.158Z,53.20
2019-03-12T00:06:10.705Z,53.00
2019-03-12T00:06:41.884Z,53.10
2019-03-12T00:07:13.378Z,53.00
2019-03-12T00:07:44.558Z,53.00
2019-03-12T00:08:15.754Z,53.00
2019-03-12T00:08:46.950Z,53.00
2019-03-12T00:09:18.129Z,53.00
2019-03-12T00:09:49.326Z,53.00
2019-03-12T00:10:20.772Z,52.90
2019-03-12T00:10:51.956Z,53.00
2019-03-12T00:11:23.148Z,53.00
2019-03-12T00:11:54.828Z,53.00
2019-03-12T00:12:26.023Z,52.90
2019-03-12T00:12:57.205Z,53.00
2019-03-12T00:13:28.388Z,53.00
2019-03-12T00:13:59.571Z,53.00
2019-03-12T00:14:31.007Z,53.00
2019-03-12T00:15:02.500Z,53.00
2019-03-12T00:15:33.675Z,53.00
2019-03-12T00:16:04.862Z,53.00
2019-03-12T00:16:36.032Z,53.00
2019-03-12T00:17:07.204Z,53.00
2019-03-12T00:17:38.379Z,53.00
2019-03-12T00:18:09.559Z,53.00
2019-03-12T00:18:40.737Z,53.00
2019-03-12T00:19:12.232Z,53.00
2019-03-12T00:19:43.409Z,53.00
2019-03-12T00:20:14.592Z,53.00
2019-03-12T00:20:45.783Z,53.10
2019-03-12T00:21:16.964Z,53.10
2019-03-12T00:21:48.415Z,53.10
2019-03-12T00:22:19.932Z,53.20
2019-03-12T00:22:51.473Z,53.10
2019-03-12T00:23:22.646Z,53.10
2019-03-12T00:23:53.852Z,53.10
2019-03-12T00:24:25.477Z,53.10
2019-03-12T00:24:56.661Z,53.00
2019-03-12T00:25:27.865Z,53.00
2019-03-12T00:25:59.041Z,53.00
2019-03-12T00:26:30.252Z,53.00
2019-03-12T00:27:01.416Z,53.80
2019-03-12T00:27:32.617Z,53.00
2019-03-12T00:28:03.793Z,53.00
2019-03-12T00:28:35.145Z,53.00
2019-03-12T00:29:06.750Z,53.00
2019-03-12T00:29:37.925Z,53.00
2019-03-12T00:30:09.445Z,53.00
2019-03-12T00:30:40.766Z,52.90
2019-03-12T00:31:11.946Z,52.90
2019-03-12T00:31:43.131Z,53.00
2019-03-12T00:32:14.318Z,52.90
2019-03-12T00:32:45.558Z,53.00
2019-03-12T00:33:16.763Z,52.90
2019-03-12T00:33:47.990Z,52.90
2019-03-12T00:34:19.166Z,52.90
2019-03-12T00:34:50.340Z,53.00
2019-03-12T00:35:21.514Z,53.00
2019-03-12T00:35:52.727Z,53.00
2019-03-12T00:36:23.928Z,53.00
2019-03-12T00:36:55.137Z,53.00
2019-03-12T00:37:26.307Z,53.00
2019-03-12T00:37:57.823Z,53.00
2019-03-12T00:38:28.992Z,53.00
2019-03-12T00:39:00.168Z,53.00
2019-03-12T00:39:31.339Z,53.00
2019-03-12T00:40:02.619Z,53.00
2019-03-12T00:40:34.095Z,53.00
2019-03-12T00:41:05.318Z,53.00
2019-03-12T00:41:36.866Z,53.00
2019-03-12T00:42:08.044Z,53.00
2019-03-12T00:42:39.221Z,53.00
2019-03-12T00:43:10.761Z,53.00
2019-03-12T00:43:41.944Z,53.00
2019-03-12T00:44:13.429Z,53.00
2019-03-12T00:44:44.644Z,53.00
2019-03-12T00:45:15.884Z,53.00
2019-03-12T00:45:47.085Z,53.00
2019-03-12T00:46:18.281Z,53.00
2019-03-12T00:46:49.469Z,53.00
2019-03-12T00:47:20.648Z,53.00
2019-03-12T00:47:51.826Z,53.00
2019-03-12T00:48:23.022Z,53.00
2019-03-12T00:48:54.206Z,53.10
2019-03-12T00:49:25.497Z,53.00
2019-03-12T00:49:56.646Z,53.00
2019-03-12T00:50:27.830Z,53.00
2019-03-12T00:50:59.007Z,53.00
2019-03-12T00:51:30.191Z,53.00
2019-03-12T00:52:01.750Z,53.00
2019-03-12T00:52:32.939Z,52.90
2019-03-12T00:53:04.140Z,52.90
2019-03-12T00:53:35.570Z,52.90
2019-03-12T00:54:06.784Z,52.90
2019-03-12T00:54:38.412Z,52.90
2019-03-12T00:55:09.811Z,52.90
2019-03-12T00:55:40.975Z,52.90
2019-03-12T00:56:12.163Z,52.90
2019-03-12T00:56:43.330Z,52.80
2019-03-12T00:57:14.512Z,52.90
2019-03-12T00:57:46.024Z,52.80
2019-03-12T00:58:17.544Z,52.80
2019-03-12T00:58:48.724Z,52.80
2019-03-12T00:59:19.922Z,52.80
2019-03-12T00:59:51.092Z,52.50
2019-03-12T01:00:22.268Z,52.80
2019-03-12T01:00:53.537Z,52.90
2019-03-12T01:01:24.827Z,52.80
2019-03-12T01:01:56.052Z,52.80
2019-03-12T01:02:27.301Z,52.80
2019-03-12T01:02:58.508Z,52.90
2019-03-12T01:03:29.688Z,52.80
2019-03-12T01:04:00.905Z,52.80
2019-03-12T01:04:32.120Z,52.80
2019-03-12T01:05:03.331Z,52.80
2019-03-12T01:05:34.505Z,52.90
2019-03-12T01:06:05.753Z,52.90
2019-03-12T01:06:36.933Z,52.90
2019-03-12T01:07:08.199Z,52.90
2019-03-12T01:07:39.481Z,52.90
2019-03-12T01:08:10.941Z,52.90
2019-03-12T01:08:42.113Z,53.30
2019-03-12T01:09:13.298Z,52.80
2019-03-12T01:09:44.480Z,52.90
2019-03-12T01:10:15.649Z,52.90
2019-03-12T01:10:46.833Z,52.90
2019-03-12T01:11:18.042Z,53.00
2019-03-12T01:11:49.271Z,52.90
2019-03-12T01:12:20.442Z,53.00
2019-03-12T01:12:51.618Z,53.00
2019-03-12T01:13:22.790Z,53.00
2019-03-12T01:13:53.984Z,53.00
2019-03-12T01:14:25.627Z,53.00
2019-03-12T01:14:56.803Z,53.00
2019-03-12T01:15:27.983Z,53.00
2019-03-12T01:15:59.520Z,53.00
2019-03-12T01:16:30.698Z,53.00
2019-03-12T01:17:01.870Z,53.00
2019-03-12T01:17:33.053Z,52.90
2019-03-12T01:18:04.555Z,53.00
2019-03-12T01:18:35.851Z,52.90
2019-03-12T01:19:07.083Z,52.90
2019-03-12T01:19:38.272Z,52.90
2019-03-12T01:20:09.896Z,52.90
2019-03-12T01:20:41.419Z,52.80
2019-03-12T01:21:12.600Z,52.80
2019-03-12T01:21:43.778Z,52.80
2019-03-12T01:22:14.956Z,52.80
2019-03-12T01:22:46.160Z,52.90
2019-03-12T01:23:17.414Z,52.80
2019-03-12T01:23:48.663Z,52.80
2019-03-12T01:24:20.166Z,52.80
2019-03-12T01:24:51.417Z,52.80
2019-03-12T01:25:22.607Z,52.90
2019-03-12T01:25:53.777Z,52.80
2019-03-12T01:26:24.949Z,52.80
2019-03-12T01:26:56.198Z,52.70
2019-03-12T01:27:27.483Z,52.70
2019-03-12T01:27:58.999Z,52.80
2019-03-12T01:28:30.209Z,52.70
2019-03-12T01:29:01.473Z,52.70
2019-03-12T01:29:32.650Z,52.70
2019-03-12T01:30:03.835Z,52.80
2019-03-12T01:30:35.010Z,52.70
2019-03-12T01:31:06.195Z,52.70
2019-03-12T01:31:37.374Z,52.70
2019-03-12T01:32:08.581Z,52.70
2019-03-12T01:32:39.831Z,52.70
2019-03-12T01:33:11.006Z,52.70
2019-03-12T01:33:42.182Z,52.70
2019-03-12T01:34:13.362Z,52.80
2019-03-12T01:34:44.538Z,52.70
2019-03-12T01:35:15.724Z,52.70
2019-03-12T01:35:47.183Z,52.70
2019-03-12T01:36:18.367Z,52.70
2019-03-12T01:36:49.539Z,52.70
2019-03-12T01:37:20.727Z,52.70
2019-03-12T01:37:51.914Z,52.80
2019-03-12T01:38:23.087Z,52.80
2019-03-12T01:38:54.275Z,52.80
2019-03-12T01:39:25.446Z,52.80
2019-03-12T01:39:56.624Z,52.80
2019-03-12T01:40:27.900Z,52.80
2019-03-12T01:40:59.092Z,52.80
2019-03-12T01:41:30.264Z,52.70
2019-03-12T01:42:01.756Z,52.80
2019-03-12T01:42:32.943Z,52.80
2019-03-12T01:43:04.116Z,52.70
2019-03-12T01:43:35.290Z,52.70
2019-03-12T01:44:06.465Z,52.60
2019-03-12T01:44:37.641Z,52.70
2019-03-12T01:45:08.816Z,52.70
2019-03-12T01:45:40.068Z,52.60
2019-03-12T01:46:11.254Z,52.70
2019-03-12T01:46:42.429Z,52.60
2019-03-12T01:47:13.613Z,52.70
2019-03-12T01:47:44.875Z,52.60
2019-03-12T01:48:16.338Z,52.60
2019-03-12T01:48:47.589Z,52.60
2019-03-12T01:49:18.771Z,52.60
2019-03-12T01:49:50.243Z,52.60
2019-03-12T01:50:21.433Z,52.60
2019-03-12T01:50:52.616Z,52.60
2019-03-12T01:51:23.974Z,52.60
2019-03-12T01:51:55.223Z,52.60
2019-03-12T01:52:26.395Z,52.60
2019-03-12T01:52:57.562Z,52.50
2019-03-12T01:53:29.070Z,52.60
2019-03-12T01:54:00.282Z,52.60
2019-03-12T01:54:31.450Z,52.60
2019-03-12T01:55:02.666Z,53.20
2019-03-12T01:55:33.866Z,52.60
2019-03-12T01:56:05.445Z,52.60
2019-03-12T01:56:36.684Z,52.60
2019-03-12T01:57:08.208Z,52.70
2019-03-12T01:57:39.387Z,52.60
2019-03-12T01:58:10.568Z,52.70
2019-03-12T01:58:41.731Z,52.70
2019-03-12T01:59:12.919Z,52.80
2019-03-12T01:59:44.100Z,52.70
2019-03-12T02:00:15.281Z,52.80
2019-03-12T02:00:46.472Z,52.70
2019-03-12T02:01:17.676Z,52.80
2019-03-12T02:01:48.856Z,52.70
2019-03-12T02:02:20.032Z,52.70
2019-03-12T02:02:51.232Z,52.70
2019-03-12T02:03:22.409Z,52.70
2019-03-12T02:03:53.604Z,52.70
2019-03-12T02:04:25.181Z,52.60
2019-03-12T02:04:56.357Z,52.70
2019-03-12T02:05:27.532Z,52.60
2019-03-12T02:05:58.705Z,52.60
2019-03-12T02:06:29.935Z,52.60
2019-03-12T02:07:01.417Z,52.50
2019-03-12T02:07:32.649Z,52.60
2019-03-12T02:08:03.906Z,52.50
2019-03-12T02:08:35.157Z,52.60
2019-03-12T02:09:06.342Z,52.50
2019-03-12T02:09:37.602Z,52.50
2019-03-12T02:10:08.782Z,52.50
2019-03-12T02:10:39.966Z,52.50
2019-03-12T02:11:11.151Z,52.50
2019-03-12T02:11:42.330Z,52.50
2019-03-12T02:12:13.508Z,52.50
2019-03-12T02:12:44.695Z,52.50
2019-03-12T02:13:15.890Z,52.80
2019-03-12T02:13:47.466Z,52.40
2019-03-12T02:14:18.985Z,52.50
2019-03-12T02:14:50.157Z,52.40
2019-03-12T02:15:21.363Z,52.40
2019-03-12T02:15:52.878Z,52.40
2019-03-12T02:16:24.062Z,52.40
2019-03-12T02:16:55.276Z,52.40
2019-03-12T02:17:26.455Z,52.40
2019-03-12T02:17:57.629Z,52.40
2019-03-12T02:18:29.144Z,52.50
2019-03-12T02:19:00.315Z,52.40
2019-03-12T02:19:31.487Z,52.40
2019-03-12T02:20:02.727Z,52.40
2019-03-12T02:20:33.899Z,52.50
2019-03-12T02:21:05.089Z,52.50
2019-03-12T02:21:36.271Z,52.40
2019-03-12T02:22:07.439Z,52.50
2019-03-12T02:22:38.620Z,52.40
2019-03-12T02:23:09.846Z,52.50
2019-03-12T02:23:41.017Z,52.40
2019-03-12T02:24:12.217Z,52.50
2019-03-12T02:24:52.743Z,52.50
2019-03-12T02:25:16.280Z,52.50
2019-03-12T02:25:47.518Z,52.50
2019-03-12T02:26:19.058Z,52.50
2019-03-12T02:26:50.318Z,52.60
2019-03-12T02:27:21.493Z,52.60
2019-03-12T02:27:52.668Z,52.60
2019-03-12T02:28:24.104Z,52.60
2019-03-12T02:28:55.294Z,52.50
2019-03-12T02:29:26.761Z,52.50
2019-03-12T02:29:58.201Z,52.50
2019-03-12T02:30:29.463Z,52.50
2019-03-12T02:31:00.702Z,52.50
2019-03-12T02:31:31.892Z,52.50
2019-03-12T02:32:03.082Z,52.50
2019-03-12T02:32:34.270Z,52.50
2019-03-12T02:33:05.540Z,52.40
2019-03-12T02:33:36.718Z,52.50
2019-03-12T02:34:07.895Z,52.40
2019-03-12T02:34:39.080Z,52.40
2019-03-12T02:35:10.272Z,52.40
2019-03-12T02:35:41.466Z,52.40
2019-03-12T02:36:12.634Z,52.40
2019-03-12T02:36:43.827Z,52.40
2019-03-12T02:37:15.011Z,52.40
2019-03-12T02:37:46.188Z,52.40
2019-03-12T02:38:17.363Z,52.40
2019-03-12T02:38:48.543Z,52.40
2019-03-12T02:39:19.719Z,52.40
2019-03-12T02:39:50.891Z,52.40
2019-03-12T02:40:22.088Z,52.40
2019-03-12T02:40:53.274Z,52.40
2019-03-12T02:41:24.592Z,52.40
2019-03-12T02:41:55.841Z,52.50
2019-03-12T02:42:27.020Z,52.50
2019-03-12T02:42:58.217Z,52.40
2019-03-12T02:43:29.392Z,52.40
2019-03-12T02:44:00.568Z,52.50
2019-03-12T02:44:31.744Z,52.50
2019-03-12T02:45:03.020Z,52.50
2019-03-12T02:45:34.193Z,52.40
2019-03-12T02:46:05.369Z,52.40
2019-03-12T02:46:36.550Z,52.40
2019-03-12T02:47:07.726Z,52.50
2019-03-12T02:47:38.975Z,52.40
2019-03-12T02:48:10.192Z,52.40
2019-03-12T02:48:41.374Z,52.40
2019-03-12T02:49:12.550Z,52.50
2019-03-12T02:49:43.731Z,52.40
2019-03-12T02:50:14.953Z,52.50
2019-03-12T02:50:46.162Z,52.50
2019-03-12T02:51:17.350Z,52.50
2019-03-12T02:51:48.835Z,52.40
2019-03-12T02:52:20.059Z,52.40
2019-03-12T02:52:51.283Z,52.40
2019-03-12T02:53:22.486Z,52.40
2019-03-12T02:53:53.661Z,52.50
2019-03-12T02:54:24.848Z,52.40
2019-03-12T02:54:56.059Z,52.30
2019-03-12T02:55:27.274Z,52.30
2019-03-12T02:56:01.807Z,52.40
2019-03-12T02:56:31.398Z,52.30
2019-03-12T02:57:02.624Z,52.30
2019-03-12T02:57:33.798Z,52.30
2019-03-12T02:58:04.969Z,52.30
2019-03-12T02:58:36.155Z,52.60
2019-03-12T02:59:07.354Z,52.30
2019-03-12T02:59:38.587Z,52.30
2019-03-12T03:00:10.097Z,52.30
2019-03-12T03:00:41.348Z,52.30
2019-03-12T03:01:12.523Z,52.30
2019-03-12T03:01:43.720Z,52.30
2019-03-12T03:02:14.896Z,52.30
2019-03-12T03:02:46.080Z,52.20
2019-03-12T03:03:17.315Z,52.30
2019-03-12T03:03:48.493Z,52.20
2019-03-12T03:04:19.664Z,52.30
2019-03-12T03:04:54.140Z,52.30
2019-03-12T03:05:23.776Z,52.20
2019-03-12T03:05:55.044Z,52.30
2019-03-12T03:06:26.217Z,52.30
2019-03-12T03:06:57.395Z,52.30
2019-03-12T03:07:28.864Z,52.30
2019-03-12T03:08:00.080Z,52.30
2019-03-12T03:08:31.545Z,52.30
2019-03-12T03:09:02.798Z,52.90
2019-03-12T03:09:33.965Z,52.30
2019-03-12T03:10:05.153Z,52.40
2019-03-12T03:10:36.354Z,52.40
2019-03-12T03:11:07.526Z,52.40
2019-03-12T03:11:38.705Z,52.40
2019-03-12T03:12:09.884Z,52.30
2019-03-12T03:12:41.117Z,52.30
2019-03-12T03:13:12.662Z,52.30
2019-03-12T03:13:43.923Z,52.30
2019-03-12T03:14:15.103Z,52.30
2019-03-12T03:14:46.283Z,52.30
2019-03-12T03:15:17.458Z,52.30
2019-03-12T03:15:48.639Z,52.30
2019-03-12T03:16:23.864Z,52.30
2019-03-12T03:16:52.790Z,52.20
2019-03-12T03:17:23.948Z,52.20
2019-03-12T03:17:55.122Z,52.30
2019-03-12T03:18:26.349Z,52.30
2019-03-12T03:18:57.567Z,52.30
2019-03-12T03:19:28.766Z,52.30
2019-03-12T03:19:59.943Z,52.30
2019-03-12T03:20:31.141Z,52.20
2019-03-12T03:21:02.394Z,52.30
2019-03-12T03:21:33.628Z,52.30
2019-03-12T03:22:04.808Z,52.30
2019-03-12T03:22:35.979Z,52.30
2019-03-12T03:23:07.152Z,52.20
2019-03-12T03:23:38.325Z,52.20
2019-03-12T03:24:09.528Z,52.30
2019-03-12T03:24:40.820Z,52.30
2019-03-12T03:25:12.225Z,52.30
2019-03-12T03:25:43.441Z,52.30
2019-03-12T03:26:14.619Z,52.30
2019-03-12T03:26:45.793Z,52.30
2019-03-12T03:27:16.979Z,52.30
2019-03-12T03:27:48.159Z,52.30
2019-03-12T03:28:19.489Z,52.30
2019-03-12T03:28:50.701Z,52.30
2019-03-12T03:29:21.876Z,52.20
2019-03-12T03:29:53.057Z,52.30
2019-03-12T03:30:24.306Z,52.20
2019-03-12T03:30:55.891Z,52.20
2019-03-12T03:31:27.070Z,52.20
2019-03-12T03:31:58.252Z,52.20
2019-03-12T03:32:29.507Z,52.30
2019-03-12T03:33:00.687Z,52.20
2019-03-12T03:33:31.934Z,52.20
2019-03-12T03:34:03.184Z,52.10
2019-03-12T03:34:34.796Z,52.20
2019-03-12T03:35:05.988Z,52.80
2019-03-12T03:35:37.240Z,52.30
2019-03-12T03:36:08.442Z,52.30
2019-03-12T03:36:39.626Z,52.30
2019-03-12T03:37:10.822Z,52.30
2019-03-12T03:37:42.025Z,52.30
2019-03-12T03:38:13.199Z,52.30
2019-03-12T03:38:44.379Z,52.20
2019-03-12T03:39:15.585Z,52.30
2019-03-12T03:39:46.759Z,52.20
2019-03-12T03:40:17.997Z,52.20
2019-03-12T03:40:49.194Z,52.20
2019-03-12T03:41:20.422Z,52.20
2019-03-12T03:41:51.599Z,52.80
2019-03-12T03:42:22.772Z,52.10
2019-03-12T03:42:53.972Z,52.10
2019-03-12T03:43:25.171Z,52.10
2019-03-12T03:43:56.400Z,52.10
2019-03-12T03:44:27.585Z,52.20
2019-03-12T03:44:58.858Z,52.10
2019-03-12T03:45:30.035Z,52.10
2019-03-12T03:46:01.212Z,52.10
2019-03-12T03:46:32.419Z,52.10
2019-03-12T03:47:03.598Z,52.10
2019-03-12T03:47:35.089Z,52.00
2019-03-12T03:48:06.269Z,52.10
2019-03-12T03:48:37.760Z,52.70
2019-03-12T03:49:08.937Z,52.10
2019-03-12T03:49:40.436Z,52.00
2019-03-12T03:50:11.610Z,52.00
2019-03-12T03:50:42.792Z,52.70
2019-03-12T03:51:13.990Z,52.00
2019-03-12T03:51:45.169Z,52.10
2019-03-12T03:52:16.349Z,52.10
2019-03-12T03:52:47.520Z,52.10
2019-03-12T03:53:18.729Z,52.10
2019-03-12T03:53:49.914Z,52.00
2019-03-12T03:54:21.097Z,52.10
2019-03-12T03:54:52.354Z,52.10
2019-03-12T03:55:23.536Z,52.20
2019-03-12T03:55:54.725Z,52.00
2019-03-12T03:56:25.987Z,52.10
2019-03-12T03:56:57.162Z,52.10
2019-03-12T03:57:28.338Z,52.00
2019-03-12T03:57:59.525Z,52.10
2019-03-12T03:58:30.703Z,52.10
2019-03-12T03:59:01.904Z,52.20
2019-03-12T03:59:33.110Z,52.10
2019-03-12T04:00:04.374Z,52.20
2019-03-12T04:00:35.641Z,52.20
2019-03-12T04:01:06.852Z,52.30
2019-03-12T04:01:38.364Z,52.30
2019-03-12T04:02:09.547Z,52.20
2019-03-12T04:02:40.749Z,52.20
2019-03-12T04:03:11.925Z,52.20
2019-03-12T04:03:43.100Z,52.20
2019-03-12T04:04:14.272Z,52.20
2019-03-12T04:04:45.444Z,52.20
2019-03-12T04:05:16.690Z,52.20
2019-03-12T04:05:47.970Z,52.10
2019-03-12T04:06:19.141Z,52.10
2019-03-12T04:06:50.318Z,52.10
2019-03-12T04:07:21.496Z,52.20
2019-03-12T04:07:52.977Z,52.10
2019-03-12T04:08:24.151Z,52.10
2019-03-12T04:08:55.716Z,52.10
2019-03-12T04:09:26.953Z,52.10
2019-03-12T04:09:58.132Z,52.10
2019-03-12T04:10:29.334Z,52.10
2019-03-12T04:11:00.599Z,52.10
2019-03-12T04:11:31.810Z,52.10
2019-03-12T04:12:03.167Z,52.10
2019-03-12T04:12:34.401Z,52.10
2019-03-12T04:13:05.704Z,52.00
2019-03-12T04:13:36.873Z,52.00
2019-03-12T04:14:08.052Z,52.00
2019-03-12T04:14:39.227Z,52.00
2019-03-12T04:15:10.439Z,52.00
2019-03-12T04:15:41.617Z,52.00
2019-03-12T04:16:12.823Z,51.90
2019-03-12T04:16:44.009Z,52.00
2019-03-12T04:17:15.188Z,52.00
2019-03-12T04:17:46.682Z,51.90
2019-03-12T04:18:17.966Z,51.90
2019-03-12T04:18:49.332Z,52.00
2019-03-12T04:19:20.560Z,52.00
2019-03-12T04:19:51.722Z,52.00
2019-03-12T04:20:22.917Z,52.20
2019-03-12T04:20:54.505Z,52.10
2019-03-12T04:21:25.748Z,52.20
2019-03-12T04:21:57.344Z,52.20
2019-03-12T04:22:28.529Z,52.20
2019-03-12T04:22:59.816Z,52.20
2019-03-12T04:23:31.051Z,52.20
2019-03-12T04:24:02.692Z,52.10
2019-03-12T04:24:33.860Z,52.20
2019-03-12T04:25:05.034Z,52.10
2019-03-12T04:25:36.224Z,52.10
2019-03-12T04:26:07.449Z,52.20
2019-03-12T04:26:38.692Z,52.10
2019-03-12T04:27:09.925Z,52.10
2019-03-12T04:27:41.412Z,52.00
2019-03-12T04:28:12.593Z,52.00
2019-03-12T04:28:43.850Z,52.00
2019-03-12T04:29:15.421Z,52.00
2019-03-12T04:29:46.632Z,52.00
2019-03-12T04:30:17.814Z,52.00
2019-03-12T04:30:49.017Z,52.00
2019-03-12T04:31:20.188Z,52.00
2019-03-12T04:31:51.369Z,52.00
2019-03-12T04:32:22.545Z,51.90
2019-03-12T04:32:53.721Z,51.90
2019-03-12T04:33:25.069Z,51.90
2019-03-12T04:33:56.245Z,52.00
2019-03-12T04:34:27.425Z,52.00
2019-03-12T04:34:58.610Z,51.90
2019-03-12T04:35:29.789Z,52.00
2019-03-12T04:36:00.997Z,51.90
2019-03-12T04:36:32.220Z,52.00
2019-03-12T04:37:03.450Z,52.50
2019-03-12T04:37:34.630Z,52.00
2019-03-12T04:38:07.236Z,52.00
2019-03-12T04:38:38.677Z,52.00
2019-03-12T04:39:10.419Z,52.10
2019-03-12T04:39:41.651Z,52.70
2019-03-12T04:40:12.875Z,52.00
2019-03-12T04:40:44.111Z,52.10
2019-03-12T04:41:15.339Z,52.10
2019-03-12T04:41:46.543Z,52.20
2019-03-12T04:42:17.711Z,52.10
2019-03-12T04:42:48.894Z,52.10
2019-03-12T04:43:20.059Z,52.10
2019-03-12T04:43:51.227Z,52.10
2019-03-12T04:44:22.406Z,52.10
2019-03-12T04:44:53.608Z,52.10
2019-03-12T04:45:24.799Z,52.00
2019-03-12T04:45:55.995Z,52.10
2019-03-12T04:46:27.176Z,52.00
2019-03-12T04:46:58.385Z,52.00
2019-03-12T04:47:29.561Z,52.00
2019-03-12T04:48:00.805Z,52.00
2019-03-12T04:48:31.984Z,52.00
2019-03-12T04:49:03.204Z,52.00
2019-03-12T04:49:34.376Z,52.00
2019-03-12T04:50:05.592Z,52.00
2019-03-12T04:50:36.768Z,52.00
2019-03-12T04:51:07.949Z,52.00
2019-03-12T04:51:39.124Z,52.00
2019-03-12T04:52:10.615Z,52.00
2019-03-12T04:52:41.788Z,52.00
2019-03-12T04:53:12.964Z,51.90
2019-03-12T04:53:44.184Z,52.00
2019-03-12T04:54:15.369Z,51.90
2019-03-12T04:54:46.826Z,51.90
2019-03-12T04:55:18.004Z,52.00
2019-03-12T04:55:49.493Z,51.90
2019-03-12T04:56:20.693Z,51.90
2019-03-12T04:56:51.877Z,51.90
2019-03-12T04:57:23.073Z,51.90
2019-03-12T04:57:54.245Z,51.90
2019-03-12T04:58:25.423Z,52.00
2019-03-12T04:58:56.610Z,52.00
2019-03-12T04:59:28.126Z,51.90
2019-03-12T04:59:59.331Z,51.90
2019-03-12T05:00:30.790Z,52.00
2019-03-12T05:01:01.980Z,52.00
2019-03-12T05:01:33.247Z,51.90
2019-03-12T05:02:04.827Z,52.00
2019-03-12T05:02:36.037Z,52.00
2019-03-12T05:03:07.218Z,52.00
2019-03-12T05:03:38.398Z,51.90
2019-03-12T05:04:09.567Z,52.00
2019-03-12T05:04:40.779Z,52.00
2019-03-12T05:05:11.950Z,52.00
2019-03-12T05:05:43.128Z,52.00
2019-03-12T05:06:14.298Z,52.00
2019-03-12T05:06:45.475Z,52.00
2019-03-12T05:07:16.655Z,52.00
2019-03-12T05:07:47.855Z,52.00
2019-03-12T05:08:19.095Z,52.00
2019-03-12T05:08:50.276Z,52.10
2019-03-12T05:09:21.740Z,52.00
2019-03-12T05:09:52.987Z,52.60
2019-03-12T05:10:24.162Z,52.70
2019-03-12T05:10:55.343Z,52.10
2019-03-12T05:11:26.515Z,52.10
2019-03-12T05:11:57.707Z,52.10
2019-03-12T05:12:30.583Z,52.10
2019-03-12T05:13:02.024Z,52.10
2019-03-12T05:13:33.268Z,52.10
2019-03-12T05:14:04.775Z,52.20
2019-03-12T05:14:35.958Z,52.10
2019-03-12T05:15:07.157Z,52.10
2019-03-12T05:15:38.701Z,52.10
2019-03-12T05:16:09.877Z,52.20
2019-03-12T05:16:41.351Z,52.10
2019-03-12T05:17:12.884Z,52.10
2019-03-12T05:17:44.445Z,52.10
2019-03-12T05:18:15.883Z,52.10
2019-03-12T05:18:47.058Z,52.10
2019-03-12T05:19:18.387Z,52.10
2019-03-12T05:19:49.589Z,52.00
2019-03-12T05:20:20.769Z,52.10
2019-03-12T05:20:51.957Z,52.10
2019-03-12T05:21:23.178Z,52.10
2019-03-12T05:21:54.354Z,52.10
2019-03-12T05:22:25.574Z,52.10
2019-03-12T05:22:57.063Z,52.10
2019-03-12T05:23:28.314Z,52.70
2019-03-12T05:23:59.824Z,52.00
2019-03-12T05:24:31.363Z,52.10
2019-03-12T05:25:02.540Z,52.10
2019-03-12T05:25:33.738Z,52.10
2019-03-12T05:26:04.948Z,52.10
2019-03-12T05:26:36.133Z,52.10
2019-03-12T05:27:07.623Z,52.20
2019-03-12T05:27:38.868Z,52.10
2019-03-12T05:28:10.048Z,51.60
2019-03-12T05:28:41.532Z,52.10
2019-03-12T05:29:12.700Z,52.10
2019-03-12T05:29:43.879Z,52.10
2019-03-12T05:30:15.062Z,52.10
2019-03-12T05:30:46.244Z,52.20
2019-03-12T05:31:17.420Z,52.20
2019-03-12T05:31:48.596Z,52.20
2019-03-12T05:32:19.772Z,52.20
2019-03-12T05:32:51.043Z,52.20
2019-03-12T05:33:22.244Z,52.10
2019-03-12T05:33:53.420Z,52.10
2019-03-12T05:34:24.618Z,52.10
2019-03-12T05:34:55.964Z,52.80
2019-03-12T05:35:27.244Z,52.00
2019-03-12T05:35:58.709Z,52.00
2019-03-12T05:36:30.146Z,52.00
2019-03-12T05:37:01.342Z,52.00
2019-03-12T05:37:32.587Z,52.00
2019-03-12T05:38:03.923Z,52.00
2019-03-12T05:38:35.130Z,52.10
2019-03-12T05:39:06.301Z,52.00
2019-03-12T05:39:37.491Z,52.00
2019-03-12T05:40:08.922Z,52.00
2019-03-12T05:40:40.407Z,52.00
2019-03-12T05:41:12.403Z,52.00
2019-03-12T05:41:44.088Z,52.00
2019-03-12T05:42:15.270Z,52.00
2019-03-12T05:42:46.446Z,52.00
2019-03-12T05:43:17.729Z,52.00
2019-03-12T05:43:48.902Z,51.90
2019-03-12T05:44:20.108Z,51.90
2019-03-12T05:44:51.275Z,52.00
2019-03-12T05:45:22.462Z,52.00
2019-03-12T05:45:53.667Z,52.00
2019-03-12T05:46:25.195Z,51.90
2019-03-12T05:46:56.742Z,51.90
2019-03-12T05:47:27.917Z,51.90
2019-03-12T05:47:59.231Z,52.00
2019-03-12T05:48:30.467Z,52.00
2019-03-12T05:49:01.639Z,52.00
2019-03-12T05:49:32.855Z,52.00
2019-03-12T05:50:04.123Z,52.00
2019-03-12T05:50:35.312Z,52.00
2019-03-12T05:51:06.493Z,52.00
2019-03-12T05:51:37.679Z,52.00
2019-03-12T05:52:08.858Z,52.00
2019-03-12T05:52:40.064Z,52.10
2019-03-12T05:53:11.290Z,52.00
2019-03-12T05:53:42.504Z,52.10
2019-03-12T05:54:13.709Z,52.10
2019-03-12T05:54:44.901Z,52.10
2019-03-12T05:55:16.076Z,52.10
2019-03-12T05:55:47.258Z,52.10
2019-03-12T05:56:18.496Z,52.10
2019-03-12T05:56:49.673Z,52.10
2019-03-12T05:57:20.857Z,52.10
2019-03-12T05:57:52.065Z,52.10
2019-03-12T05:58:23.257Z,52.10
2019-03-12T05:58:54.463Z,52.20
2019-03-12T05:59:25.655Z,52.10
2019-03-12T05:59:57.217Z,52.10
2019-03-12T06:00:28.413Z,52.80
2019-03-12T06:00:59.613Z,52.10
2019-03-12T06:01:30.921Z,52.10
2019-03-12T06:02:02.105Z,52.10
2019-03-12T06:02:33.309Z,52.00
2019-03-12T06:03:04.524Z,52.10
2019-03-12T06:03:35.698Z,52.10
2019-03-12T06:04:06.884Z,52.10
2019-03-12T06:04:38.086Z,52.10
2019-03-12T06:05:09.543Z,52.10
2019-03-12T06:05:40.786Z,52.20
2019-03-12T06:06:12.028Z,52.00
2019-03-12T06:06:43.274Z,52.10
2019-03-12T06:07:14.455Z,52.10
2019-03-12T06:07:45.627Z,52.10
2019-03-12T06:08:16.801Z,52.20
2019-03-12T06:08:47.992Z,52.10
2019-03-12T06:09:29.631Z,52.10
2019-03-12T06:09:52.078Z,52.10
2019-03-12T06:10:23.260Z,52.00
2019-03-12T06:10:54.459Z,52.10
2019-03-12T06:11:25.701Z,52.00
2019-03-12T06:11:57.222Z,52.10
2019-03-12T06:12:28.457Z,52.00
2019-03-12T06:12:59.968Z,52.30
2019-03-12T06:13:31.153Z,52.00
2019-03-12T06:14:02.328Z,52.00
2019-03-12T06:14:33.543Z,52.00
2019-03-12T06:15:04.721Z,52.00
2019-03-12T06:15:35.925Z,52.10
2019-03-12T06:16:07.104Z,52.00
2019-03-12T06:16:38.285Z,52.10
2019-03-12T06:17:09.465Z,52.10
2019-03-12T06:17:40.748Z,52.10
2019-03-12T06:18:11.944Z,52.10
2019-03-12T06:18:43.137Z,52.10
2019-03-12T06:19:14.651Z,52.10
2019-03-12T06:19:45.834Z,52.10
2019-03-12T06:20:17.013Z,52.10
2019-03-12T06:20:48.569Z,52.00
2019-03-12T06:21:20.094Z,52.10
2019-03-12T06:21:51.674Z,52.10
2019-03-12T06:22:22.850Z,52.00
2019-03-12T06:22:54.043Z,52.00
2019-03-12T06:23:25.311Z,52.00
2019-03-12T06:23:56.475Z,51.90
2019-03-12T06:24:27.655Z,52.00
2019-03-12T06:24:58.829Z,52.00
2019-03-12T06:25:31.128Z,51.90
2019-03-12T06:26:02.374Z,52.00
2019-03-12T06:26:33.585Z,51.90
2019-03-12T06:27:04.766Z,52.00
2019-03-12T06:27:35.938Z,52.00
2019-03-12T06:28:07.115Z,52.10
2019-03-12T06:28:38.290Z,52.00
2019-03-12T06:29:09.463Z,52.10
2019-03-12T06:29:40.651Z,52.00
2019-03-12T06:30:11.843Z,52.00
2019-03-12T06:30:43.014Z,52.00
2019-03-12T06:31:14.191Z,52.10
2019-03-12T06:31:45.379Z,52.00
2019-03-12T06:32:16.553Z,52.00
2019-03-12T06:32:48.124Z,52.00
2019-03-12T06:33:19.667Z,52.00
2019-03-12T06:33:50.953Z,52.00
2019-03-12T06:34:22.099Z,52.00
2019-03-12T06:34:53.288Z,52.00
2019-03-12T06:35:24.472Z,52.60
2019-03-12T06:35:55.988Z,52.00
2019-03-12T06:36:27.168Z,52.10
2019-03-12T06:36:58.343Z,52.00
2019-03-12T06:37:29.517Z,52.00
2019-03-12T06:38:01.016Z,52.00
2019-03-12T06:38:32.192Z,52.10
2019-03-12T06:39:03.389Z,52.10
2019-03-12T06:39:34.586Z,52.10
2019-03-12T06:40:05.806Z,52.10
2019-03-12T06:40:36.985Z,52.10
2019-03-12T06:41:08.157Z,52.10
2019-03-12T06:41:39.374Z,52.10
2019-03-12T06:42:10.553Z,52.20
2019-03-12T06:42:41.730Z,52.30